Time;durP1;ratioP1;P1;durP2;ratioP2;P2;SDS_P1;SDS_P2;PMS_P1;PMS_P2;Temp;Humidity;BMP_temperature;BMP_pressure;BME280_temperature;BME280_humidity;BME280_pressure;Samples;Min_cycle;Max_cycle;Signal;HPM_P1;HPM_P2
2022/07/19 00:00:50;;;;;;;2.57;1.43;;;;;;;20.60;39.65;99290.03;5073679;28;42008;-74
2022/07/19 00:03:18;;;;;;;2.40;1.30;;;;;;;20.54;39.67;99283.41;5074598;28;38967;-77
2022/07/19 00:05:45;;;;;;;3.60;1.50;;;;;;;20.32;39.71;99262.22;5090806;28;42250;-76
2022/07/19 00:08:13;;;;;;;2.07;1.73;;;;;;;20.41;39.59;99289.13;5091258;28;41829;-74
2022/07/19 00:10:41;;;;;;;2.03;1.50;;;;;;;20.34;40.08;99288.00;5091221;28;43160;-77
2022/07/19 00:13:09;;;;;;;1.97;1.63;;;;;;;20.32;39.82;99289.13;5091207;28;39921;-76
2022/07/19 00:15:36;;;;;;;1.43;1.23;;;;;;;20.25;40.19;99288.88;5091477;28;41810;-76
2022/07/19 00:18:05;;;;;;;1.33;1.23;;;;;;;20.22;39.85;99294.53;5090577;28;43925;-76
2022/07/19 00:20:33;;;;;;;2.97;1.30;;;;;;;20.19;40.15;99294.81;5092212;28;43333;-76
2022/07/19 00:23:01;;;;;;;1.30;1.20;;;;;;;20.16;40.03;99284.34;5073574;28;38630;-75
2022/07/19 00:25:28;;;;;;;1.43;1.13;;;;;;;20.05;40.21;99265.72;5092293;28;41825;-76
2022/07/19 00:27:56;;;;;;;1.20;1.00;;;;;;;20.11;40.10;99285.81;5090488;28;41760;-74
2022/07/19 00:30:23;;;;;;;1.33;1.10;;;;;;;19.99;40.03;99263.63;5090943;28;41123;-76
2022/07/19 00:32:51;;;;;;;2.10;1.13;;;;;;;20.06;40.21;99278.16;5090695;28;41780;-74
2022/07/19 00:35:20;;;;;;;1.70;1.40;;;;;;;19.92;40.20;99254.41;5090981;28;42650;-75
2022/07/19 00:37:48;;;;;;;2.63;1.43;;;;;;;20.02;40.29;99276.78;5090271;28;42845;-76
2022/07/19 00:40:22;;;;;;;1.97;1.40;;;;;;;19.96;40.54;99270.13;5090908;28;42226;-76
2022/07/19 00:42:49;;;;;;;1.33;1.17;;;;;;;19.93;40.64;99274.94;5073520;28;40247;-76
2022/07/19 00:45:17;;;;;;;1.80;1.10;;;;;;;19.88;41.09;99270.00;5090974;28;41711;-74
2022/07/19 00:47:45;;;;;;;1.50;1.10;;;;;;;19.71;41.10;99251.94;5073402;28;41733;-74
2022/07/19 00:50:13;;;;;;;2.60;1.30;;;;;;;19.75;41.41;99268.63;5090849;28;43042;-75
2022/07/19 00:52:46;;;;;;;1.87;1.30;;;;;;;19.69;41.40;99275.41;5073254;28;38996;-75
2022/07/19 00:55:14;;;;;;;2.07;1.70;;;;;;;19.62;41.90;99274.28;5090575;28;40637;-75
2022/07/19 00:57:42;;;;;;;1.30;1.10;;;;;;;19.55;41.98;99274.00;5090056;28;41574;-76
2022/07/19 01:00:11;;;;;;;3.00;1.23;;;;;;;19.48;41.97;99267.47;5091508;28;42047;-75
2022/07/19 01:02:39;;;;;;;2.17;1.33;;;;;;;19.44;42.27;99275.94;5089734;28;40948;-75
2022/07/19 01:05:08;;;;;;;5.17;1.60;;;;;;;19.37;42.74;99270.31;5073414;28;41043;-75
2022/07/19 01:07:37;;;;;;;1.83;1.33;;;;;;;19.35;42.31;99266.91;5073133;28;42943;-76
2022/07/19 01:10:08;;;;;;;1.83;1.30;;;;;;;19.32;42.52;99277.94;5091793;28;42516;-75
2022/07/19 01:12:36;;;;;;;2.27;1.20;;;;;;;19.30;42.58;99285.28;5073190;28;39597;-75
2022/07/19 01:15:14;;;;;;;1.60;1.50;;;;;;;19.24;42.86;99281.34;5090415;28;42542;-76
2022/07/19 01:17:41;;;;;;;3.30;1.33;;;;;;;19.22;42.79;99282.44;5090162;28;41794;-75
2022/07/19 01:20:10;;;;;;;3.53;1.60;;;;;;;19.17;43.36;99279.31;5072948;28;42538;-76
2022/07/19 01:22:39;;;;;;;1.80;1.20;;;;;;;19.12;43.06;99278.91;5089763;28;39941;-75
2022/07/19 01:25:07;;;;;;;1.70;1.50;;;;;;;19.10;43.62;99278.19;5090356;28;41909;-76
2022/07/19 01:27:40;;;;;;;1.97;1.60;;;;;;;18.98;43.42;99270.28;5089802;28;43546;-75
2022/07/19 01:30:13;;;;;;;1.40;1.30;;;;;;;19.00;43.46;99273.69;5073373;28;43732;-75
2022/07/19 01:32:40;;;;;;;1.17;1.13;;;;;;;18.96;43.71;99274.94;5089597;28;39034;-74
2022/07/19 01:35:09;;;;;;;1.20;1.10;;;;;;;18.91;43.75;99269.16;5091392;28;42408;-74
2022/07/19 01:37:39;;;;;;;1.60;1.50;;;;;;;18.88;44.13;99269.41;5090804;28;42695;-75
2022/07/19 01:40:09;;;;;;;1.80;1.30;;;;;;;18.82;43.95;99272.63;5076435;28;43622;-74
2022/07/19 01:42:38;;;;;;;2.60;1.43;;;;;;;18.75;44.40;99268.81;5076509;28;40369;-74
2022/07/19 01:45:07;;;;;;;2.70;1.23;;;;;;;18.70;44.74;99271.06;5076332;28;43915;-74
2022/07/19 01:47:35;;;;;;;1.87;1.30;;;;;;;18.65;44.46;99267.94;5093044;28;41228;-75
2022/07/19 01:50:05;;;;;;;2.60;1.40;;;;;;;18.59;44.17;99277.38;5093427;28;42126;-75
2022/07/19 01:52:32;;;;;;;1.40;1.30;;;;;;;18.56;44.13;99274.06;5093859;28;40469;-74
2022/07/19 01:55:02;;;;;;;1.57;1.43;;;;;;;18.51;44.21;99281.69;5093007;28;40755;-75
2022/07/19 01:57:29;;;;;;;1.70;1.20;;;;;;;18.47;44.17;99280.25;5076054;28;43059;-74
2022/07/19 01:59:57;;;;;;;1.63;1.20;;;;;;;18.43;44.34;99276.16;5094294;28;42165;-76
2022/07/19 02:02:25;;;;;;;1.97;1.30;;;;;;;18.41;43.88;99280.81;5075881;28;39853;-76
2022/07/19 02:04:52;;;;;;;2.00;1.43;;;;;;;18.25;44.18;99249.13;5094418;28;42715;-74
2022/07/19 02:07:20;;;;;;;2.13;1.43;;;;;;;18.35;44.24;99270.63;5094114;28;43571;-76
2022/07/19 02:09:48;;;;;;;1.37;1.27;;;;;;;18.31;44.75;99270.88;5092873;28;43913;-76
2022/07/19 02:12:16;;;;;;;1.40;1.30;;;;;;;18.27;44.59;99269.47;5092719;28;40756;-76
2022/07/19 02:14:44;;;;;;;1.77;1.30;;;;;;;18.26;44.54;99267.78;5093156;28;42124;-75
2022/07/19 02:17:12;;;;;;;2.03;1.13;;;;;;;18.21;44.63;99267.31;5092593;28;41824;-75
2022/07/19 02:19:40;;;;;;;1.63;1.33;;;;;;;18.19;44.73;99271.09;5094209;28;42246;-74
2022/07/19 02:22:08;;;;;;;2.57;1.10;;;;;;;18.15;44.78;99275.06;5092282;28;39017;-75
2022/07/19 02:24:35;;;;;;;1.63;1.30;;;;;;;18.10;44.97;99267.41;5093047;28;42658;-75
2022/07/19 02:27:03;;;;;;;2.10;1.03;;;;;;;18.07;45.15;99266.81;5092501;28;42778;-74
2022/07/19 02:29:32;;;;;;;3.27;1.33;;;;;;;18.03;45.21;99255.53;5092735;28;41126;-74
2022/07/19 02:32:00;;;;;;;1.37;1.27;;;;;;;17.99;45.20;99264.81;5093737;28;40128;-76
2022/07/19 02:34:28;;;;;;;2.30;2.00;;;;;;;17.96;45.28;99259.69;5075659;28;40651;-75
2022/07/19 02:36:55;;;;;;;1.27;1.17;;;;;;;17.93;45.95;99268.00;5092086;28;45097;-76
2022/07/19 02:39:23;;;;;;;1.90;1.50;;;;;;;17.89;45.81;99269.25;5092576;28;42589;-76
2022/07/19 02:41:50;;;;;;;1.50;1.40;;;;;;;17.78;45.59;99250.59;5092327;28;40736;-75
2022/07/19 02:44:18;;;;;;;1.20;1.10;;;;;;;17.82;46.08;99257.34;5075713;28;41779;-73
2022/07/19 02:46:48;;;;;;;1.20;1.10;;;;;;;17.78;46.20;99255.94;5092274;28;41410;-74
2022/07/19 02:49:17;;;;;;;2.43;1.20;;;;;;;17.74;45.92;99265.22;5093816;28;42980;-75
2022/07/19 02:51:44;;;;;;;1.90;1.40;;;;;;;17.70;46.02;99264.63;5075120;28;38882;-76
2022/07/19 02:54:12;;;;;;;1.67;1.20;;;;;;;17.68;45.95;99263.06;5092931;28;42244;-75
2022/07/19 02:56:39;;;;;;;1.47;1.00;;;;;;;17.64;46.03;99272.34;5093367;28;42797;-75
2022/07/19 02:59:07;;;;;;;1.60;1.50;;;;;;;17.62;45.99;99274.25;5092158;28;42638;-74
2022/07/19 03:01:35;;;;;;;1.40;0.97;;;;;;;17.59;46.83;99270.84;5074864;28;41068;-77
2022/07/19 03:04:04;;;;;;;1.10;1.00;;;;;;;17.55;46.73;99271.25;5092191;28;41782;-76
2022/07/19 03:06:32;;;;;;;2.17;1.40;;;;;;;17.51;46.90;99270.66;5091874;28;42571;-74
2022/07/19 03:09:00;;;;;;;2.20;1.33;;;;;;;17.46;47.23;99264.84;5092028;28;42338;-75
2022/07/19 03:11:28;;;;;;;2.30;0.90;;;;;;;17.42;47.45;99262.56;5075068;28;39840;-74
2022/07/19 03:13:56;;;;;;;3.27;1.53;;;;;;;17.37;47.23;99267.44;5092067;28;41669;-76
2022/07/19 03:16:24;;;;;;;2.30;1.30;;;;;;;17.34;47.13;99273.91;5074930;28;42462;-76
2022/07/19 03:18:51;;;;;;;2.87;1.30;;;;;;;17.26;47.32;99260.31;5091778;28;43173;-74
2022/07/19 03:21:20;;;;;;;1.90;1.00;;;;;;;17.29;47.21;99261.91;5074808;28;38350;-74
2022/07/19 03:23:48;;;;;;;1.40;1.30;;;;;;;17.28;46.97;99266.41;5091506;28;41749;-76
2022/07/19 03:26:16;;;;;;;1.80;1.23;;;;;;;17.26;47.00;99260.31;5075078;28;41406;-75
2022/07/19 03:28:44;;;;;;;1.13;1.10;;;;;;;17.25;47.10;99266.66;5091504;28;41376;-74
2022/07/19 03:31:11;;;;;;;1.30;1.20;;;;;;;16.94;47.76;99212.13;5091960;28;39624;-75
2022/07/19 03:33:39;;;;;;;3.13;1.37;;;;;;;17.21;47.66;99263.38;5091738;28;41619;-75
2022/07/19 03:36:07;;;;;;;1.70;1.10;;;;;;;17.19;47.88;99269.81;5091652;28;43783;-74
2022/07/19 03:38:36;;;;;;;1.27;1.13;;;;;;;17.17;48.19;99266.44;5091521;28;42633;-74
2022/07/19 03:41:04;;;;;;;2.27;1.27;;;;;;;17.15;48.03;99269.25;5091521;28;40887;-74
2022/07/19 03:43:32;;;;;;;2.00;1.57;;;;;;;17.13;47.79;99270.34;5091396;28;42043;-75
2022/07/19 03:45:59;;;;;;;2.53;1.20;;;;;;;17.11;47.76;99267.78;5092500;28;43834;-75
2022/07/19 03:48:27;;;;;;;3.53;1.47;;;;;;;17.10;48.07;99271.44;5092456;28;43002;-76
2022/07/19 03:50:55;;;;;;;2.70;1.27;;;;;;;17.08;48.18;99276.06;5074426;28;39820;-74
2022/07/19 03:53:23;;;;;;;2.20;1.30;;;;;;;17.08;47.60;99281.41;5091681;28;41648;-75
2022/07/19 03:55:52;;;;;;;2.63;1.40;;;;;;;17.08;47.57;99273.38;5091077;28;42752;-75
2022/07/19 03:58:20;;;;;;;1.30;1.20;;;;;;;17.10;47.87;99278.63;5091292;28;41211;-73
2022/07/19 04:00:48;;;;;;;1.30;1.20;;;;;;;17.11;47.68;99280.31;5089899;28;40081;-75
2022/07/19 04:03:16;;;;;;;1.40;1.30;;;;;;;17.12;47.54;99284.69;5091234;28;41855;-74
2022/07/19 04:05:44;;;;;;;1.30;1.20;;;;;;;17.10;47.54;99275.94;5091161;28;41715;-75
2022/07/19 04:08:12;;;;;;;1.20;1.10;;;;;;;17.14;47.63;99283.59;5091171;28;42239;-75
2022/07/19 04:10:40;;;;;;;1.30;1.20;;;;;;;17.18;47.91;99278.84;5091032;28;38944;-75
2022/07/19 04:13:09;;;;;;;1.87;1.30;;;;;;;17.22;48.20;99282.94;5090518;28;40456;-75
2022/07/19 04:15:37;;;;;;;2.33;1.67;;;;;;;17.27;48.00;99288.78;5073851;28;42632;-76
2022/07/19 04:18:05;;;;;;;1.90;1.30;;;;;;;17.32;48.90;99283.88;5073545;28;43110;-74
2022/07/19 04:20:33;;;;;;;1.27;1.13;;;;;;;17.36;49.38;99288.00;5090965;28;40031;-76
2022/07/19 04:23:00;;;;;;;2.30;1.57;;;;;;;17.38;49.25;99280.72;5090595;28;41786;-75
2022/07/19 04:25:28;;;;;;;1.87;1.40;;;;;;;17.47;49.18;99290.63;5073845;28;42511;-75
2022/07/19 04:27:56;;;;;;;1.93;1.50;;;;;;;17.45;48.83;99281.88;5091640;28;42456;-75
2022/07/19 04:30:25;;;;;;;2.60;1.20;;;;;;;17.62;49.28;99290.34;5074089;28;38883;-75
2022/07/19 04:32:53;;;;;;;1.63;1.40;;;;;;;17.68;49.46;99287.19;5090713;28;42795;-77
2022/07/19 04:35:21;;;;;;;1.80;1.50;;;;;;;17.75;48.92;99294.56;5090399;28;43294;-75
2022/07/19 04:37:49;;;;;;;2.80;1.60;;;;;;;17.83;48.88;99291.22;5091481;28;42554;-76
2022/07/19 04:40:16;;;;;;;2.00;1.80;;;;;;;17.91;48.48;99289.59;5073670;28;41349;-76
2022/07/19 04:42:44;;;;;;;1.93;1.60;;;;;;;18.01;48.92;99289.66;5090395;28;41747;-74
2022/07/19 04:45:12;;;;;;;1.67;1.50;;;;;;;18.10;48.53;99294.19;5073625;28;42732;-74
2022/07/19 04:47:41;;;;;;;3.10;1.60;;;;;;;18.20;48.64;99299.59;5073282;28;41357;-76
2022/07/19 04:50:10;;;;;;;2.23;1.43;;;;;;;18.24;48.59;99288.50;5073374;28;40335;-76
2022/07/19 04:52:38;;;;;;;2.00;1.77;;;;;;;18.38;48.13;99298.03;5089331;28;42494;-75
2022/07/19 04:55:06;;;;;;;2.37;1.40;;;;;;;18.48;47.99;99293.53;5073031;28;42823;-76
2022/07/19 04:57:34;;;;;;;1.70;1.60;;;;;;;18.60;47.89;99307.75;5090001;28;42306;-76
2022/07/19 05:00:02;;;;;;;1.77;1.30;;;;;;;18.70;47.79;99302.41;5091109;28;40133;-74
2022/07/19 05:02:30;;;;;;;3.63;1.53;;;;;;;18.80;47.58;99309.50;5089234;28;42642;-75
2022/07/19 05:04:59;;;;;;;1.20;1.03;;;;;;;18.91;47.76;99306.72;5089846;28;41904;-75
2022/07/19 05:07:27;;;;;;;2.87;1.60;;;;;;;19.02;47.57;99306.59;5073131;28;41205;-76
2022/07/19 05:09:55;;;;;;;1.63;1.50;;;;;;;19.10;47.63;99305.06;5090414;28;40868;-77
2022/07/19 05:12:23;;;;;;;2.70;1.53;;;;;;;19.26;47.53;99314.28;5090225;28;41895;-75
2022/07/19 05:14:50;;;;;;;1.50;1.30;;;;;;;19.34;47.26;99305.50;5076298;28;41850;-77
2022/07/19 05:17:18;;;;;;;1.60;1.50;;;;;;;19.44;47.36;99306.34;5076692;28;41959;-76
2022/07/19 05:19:46;;;;;;;1.77;1.40;;;;;;;19.45;47.14;99283.88;5094118;28;39723;-75
2022/07/19 05:22:15;;;;;;;1.70;1.50;;;;;;;19.67;47.15;99299.72;5093079;28;40708;-75
2022/07/19 05:24:43;;;;;;;1.70;1.50;;;;;;;19.79;47.07;99299.56;5093655;28;43690;-74
2022/07/19 05:27:11;;;;;;;2.50;1.70;;;;;;;19.90;46.62;99304.81;5076048;28;41053;-73
2022/07/19 05:29:38;;;;;;;2.53;1.77;;;;;;;20.02;46.78;99298.28;5076774;28;40434;-76
2022/07/19 05:32:07;;;;;;;1.83;1.47;;;;;;;20.15;46.61;99300.66;5093744;28;41461;-73
2022/07/19 05:34:34;;;;;;;2.43;2.00;;;;;;;20.26;46.19;99295.97;5094664;28;43767;-74
2022/07/19 05:37:02;;;;;;;2.63;1.87;;;;;;;20.39;46.64;99304.59;5093046;28;42197;-74
2022/07/19 05:39:32;;;;;;;2.37;2.13;;;;;;;20.43;45.92;99292.50;5094762;28;39944;-75
2022/07/19 05:41:59;;;;;;;3.40;1.87;;;;;;;20.63;45.81;99306.75;5076233;28;40650;-75
2022/07/19 05:44:27;;;;;;;2.70;2.10;;;;;;;20.75;46.06;99310.09;5094673;28;42484;-73
2022/07/19 05:46:55;;;;;;;2.83;1.93;;;;;;;20.88;45.72;99312.44;5094383;28;42255;-73
2022/07/19 05:49:23;;;;;;;3.10;1.97;;;;;;;21.00;46.15;99309.38;5076513;28;39898;-75
2022/07/19 05:51:51;;;;;;;1.90;1.60;;;;;;;21.12;45.97;99308.19;5091911;28;41358;-75
2022/07/19 05:54:19;;;;;;;1.80;1.40;;;;;;;21.27;45.32;99307.66;5075571;28;44883;-74
2022/07/19 05:56:48;;;;;;;1.60;1.50;;;;;;;21.42;45.48;99311.53;5094457;28;42214;-75
2022/07/19 05:59:16;;;;;;;3.43;1.80;;;;;;;21.57;45.13;99310.00;5076520;28;38923;-75
2022/07/19 06:01:44;;;;;;;2.23;1.70;;;;;;;21.70;45.21;99305.06;5092330;28;41827;-75
2022/07/19 06:04:12;;;;;;;2.27;1.60;;;;;;;21.84;44.81;99309.91;5093206;28;42803;-76
2022/07/19 06:06:39;;;;;;;3.43;1.90;;;;;;;21.98;44.74;99308.50;5094052;28;43164;-74
2022/07/19 06:09:09;;;;;;;3.10;1.90;;;;;;;22.14;44.23;99313.16;5093165;28;39199;-75
2022/07/19 06:11:37;;;;;;;3.30;2.40;;;;;;;22.31;43.92;99314.97;5093141;28;40385;-74
2022/07/19 06:14:08;;;;;;;2.87;1.80;;;;;;;22.52;43.62;99320.81;5094343;28;43816;-75
2022/07/19 06:16:38;;;;;;;1.93;1.80;;;;;;;22.74;43.38;99327.53;5075689;28;42119;-76
2022/07/19 06:19:06;;;;;;;4.00;1.77;;;;;;;22.91;43.01;99320.38;5094285;28;40850;-75
2022/07/19 06:21:34;;;;;;;2.00;1.60;;;;;;;23.09;43.06;99331.09;5092899;28;42470;-75
2022/07/19 06:24:02;;;;;;;3.27;1.97;;;;;;;23.23;42.65;99325.06;5092157;28;42691;-74
2022/07/19 06:26:29;;;;;;;2.17;1.70;;;;;;;23.41;42.30;99324.91;5087196;28;42007;-73
2022/07/19 06:28:57;;;;;;;2.60;1.77;;;;;;;23.60;42.39;99322.78;5074924;28;40193;-74
2022/07/19 06:31:26;;;;;;;2.20;1.50;;;;;;;23.79;42.10;99324.31;5074702;28;41557;-79
2022/07/19 06:33:54;;;;;;;2.20;1.67;;;;;;;23.99;41.35;99328.34;5127115;27;43850;-79
2022/07/19 06:36:22;;;;;;;2.70;1.57;;;;;;;24.18;41.27;99329.03;5072248;28;43502;-77
2022/07/19 06:38:50;;;;;;;2.70;1.90;;;;;;;24.35;40.54;99328.03;5092336;28;39847;-78
2022/07/19 06:41:18;;;;;;;3.33;1.80;;;;;;;24.58;40.14;99336.28;5090980;28;42433;-76
2022/07/19 06:43:46;;;;;;;2.40;1.60;;;;;;;24.83;39.07;99335.16;5092310;28;41711;-75
2022/07/19 06:46:14;;;;;;;2.17;1.33;;;;;;;25.00;39.07;99335.97;5091853;28;43238;-73
2022/07/19 06:48:43;;;;;;;2.40;1.53;;;;;;;25.17;38.74;99342.16;5092439;28;40125;-75
2022/07/19 06:51:11;;;;;;;1.97;1.57;;;;;;;25.34;38.72;99344.63;5091286;28;40585;-73
2022/07/19 06:53:39;;;;;;;1.87;1.57;;;;;;;25.49;38.49;99346.53;5091429;28;42746;-73
2022/07/19 06:56:07;;;;;;;2.20;1.57;;;;;;;25.63;38.13;99332.25;5125905;27;42991;-75
2022/07/19 06:58:35;;;;;;;1.50;1.40;;;;;;;25.94;38.24;99340.34;5093653;28;41430;-79
2022/07/19 07:01:03;;;;;;;1.70;1.57;;;;;;;26.27;37.14;99346.31;5091293;28;41831;-75
2022/07/19 07:03:30;;;;;;;2.80;1.90;;;;;;;26.47;36.82;99326.59;5075165;28;43113;-77
2022/07/19 07:06:00;;;;;;;2.33;1.40;;;;;;;26.77;36.15;99351.91;5074137;28;42386;-76
2022/07/19 07:08:27;;;;;;;1.70;1.60;;;;;;;26.97;35.73;99359.53;5092912;28;41884;-79
2022/07/19 07:10:55;;;;;;;2.53;1.63;;;;;;;27.22;35.46;99352.75;5091222;28;41498;-77
2022/07/19 07:13:22;;;;;;;3.10;2.03;;;;;;;27.54;34.90;99357.75;5093290;28;42869;-76
2022/07/19 07:15:50;;;;;;;1.60;1.50;;;;;;;27.77;34.46;99356.75;5091369;28;43215;-75
2022/07/19 07:18:18;;;;;;;2.73;1.63;;;;;;;27.97;34.95;99352.34;5093341;28;40014;-77
2022/07/19 07:20:45;;;;;;;1.80;1.70;;;;;;;28.11;34.77;99359.59;5091280;28;42106;-80
2022/07/19 07:23:15;;;;;;;2.67;2.10;;;;;;;28.26;35.11;99350.53;5092354;28;42730;-77
2022/07/19 07:25:42;;;;;;;2.60;1.80;;;;;;;28.42;34.52;99344.81;5074894;28;42639;-78
2022/07/19 07:28:10;;;;;;;1.87;1.63;;;;;;;28.75;33.90;99355.91;5093008;28;40945;-78
2022/07/19 07:30:37;;;;;;;2.03;1.80;;;;;;;29.14;32.53;99360.78;5091314;28;40547;-76
2022/07/19 07:33:05;;;;;;;2.67;1.90;;;;;;;29.79;31.89;99364.81;5091544;28;42958;-76
2022/07/19 07:35:33;;;;;;;2.77;2.00;;;;;;;30.84;30.28;99364.84;5090594;28;42748;-73
2022/07/19 07:38:00;;;;;;;2.13;1.60;;;;;;;31.97;28.23;99374.28;5125483;27;39985;-78
2022/07/19 07:40:30;;;;;;;2.70;1.80;;;;;;;33.33;27.17;99387.22;5073699;28;43232;-78
2022/07/19 07:42:57;;;;;;;1.90;1.47;;;;;;;34.15;26.45;99389.25;5092437;28;43363;-75
2022/07/19 07:45:25;;;;;;;2.00;1.80;;;;;;;34.75;25.08;99386.34;5092812;28;43178;-77
2022/07/19 07:47:53;;;;;;;2.37;2.00;;;;;;;35.44;24.10;99400.31;5092338;28;40845;-79
2022/07/19 07:50:21;;;;;;;2.37;2.10;;;;;;;36.33;23.54;99387.75;5091526;28;40821;-77
2022/07/19 07:52:49;;;;;;;3.10;1.80;;;;;;;37.46;22.41;99418.75;5092253;28;42875;-79
2022/07/19 07:55:16;;;;;;;2.07;1.80;;;;;;;38.08;21.78;99417.28;5092636;28;42186;-80
2022/07/19 07:57:45;;;;;;;1.87;1.50;;;;;;;38.25;21.22;99421.88;5125184;27;41825;-74
2022/07/19 08:00:14;;;;;;;2.63;2.00;;;;;;;38.20;21.50;99408.00;5090869;28;42344;-78
2022/07/19 08:02:44;;;;;;;2.23;2.00;;;;;;;37.95;21.46;99416.84;5090684;28;43751;-80
2022/07/19 08:05:12;;;;;;;1.87;1.73;;;;;;;37.73;21.25;99397.50;5092804;28;42137;-80
2022/07/19 08:07:40;;;;;;;3.37;2.00;;;;;;;38.43;20.32;99421.50;5125223;27;39982;-77
2022/07/19 08:10:10;;;;;;;5.27;2.10;;;;;;;39.41;19.94;99410.84;5091283;28;41877;-78
2022/07/19 08:12:38;;;;;;;3.23;1.83;;;;;;;40.68;18.39;99427.81;5107795;28;41553;-81
2022/07/19 08:15:09;;;;;;;4.10;1.77;;;;;;;41.71;17.80;99410.63;5091527;28;42083;-82
2022/07/19 08:17:37;;;;;;;2.38;1.77;;;;;;;41.99;17.88;99404.38;5091774;28;40800;-83
2022/07/19 08:20:06;;;;;;;2.03;1.92;;;;;;;41.59;17.93;99394.28;5091254;28;41691;-81
2022/07/19 08:22:34;;;;;;;2.28;1.80;;;;;;;41.49;17.28;99405.41;5091895;28;43534;-84
2022/07/19 08:25:02;;;;;;;1.70;1.60;;;;;;;42.16;16.54;99415.91;5074408;28;41341;-78
2022/07/19 08:27:30;;;;;;;3.28;1.73;;;;;;;43.28;16.13;99417.75;5073778;28;38811;-76
2022/07/19 08:29:58;;;;;;;4.20;1.60;;;;;;;44.43;15.60;99416.47;5091183;28;40640;-77
2022/07/19 08:32:27;;;;;;;1.35;1.25;;;;;;;45.35;14.83;99413.69;5089817;28;44276;-77
2022/07/19 08:34:55;;;;;;;1.55;1.25;;;;;;;45.99;14.30;99408.97;5090479;28;41602;-77
2022/07/19 08:37:23;;;;;;;2.53;1.50;;;;;;;46.05;13.95;99413.31;5090434;28;40165;-82
2022/07/19 08:39:50;;;;;;;1.58;1.48;;;;;;;45.91;14.33;99403.28;5074149;28;42288;-80
2022/07/19 08:42:21;;;;;;;3.10;1.75;;;;;;;45.62;14.50;99396.09;5091736;28;42973;-83
2022/07/19 08:44:51;;;;;;;2.75;1.75;;;;;;;45.89;13.61;99405.53;5091012;28;42116;-79
2022/07/19 08:47:20;;;;;;;1.40;1.30;;;;;;;46.65;13.76;99400.94;5090169;28;41681;-77
2022/07/19 08:49:50;;;;;;;1.70;1.60;;;;;;;47.63;12.34;99412.78;5073348;28;40267;-77
2022/07/19 08:52:19;;;;;;;2.40;1.60;;;;;;;48.49;12.07;99404.44;5090754;28;43759;-77
2022/07/19 08:54:47;;;;;;;1.52;1.42;;;;;;;48.93;12.55;99410.81;5090483;28;41318;-80
2022/07/19 09:00:00;;;;;;;1.40;1.30;;;;;;;47.84;12.16;99404.59;5073231;28;42380;-77
2022/07/19 09:02:27;;;;;;;1.90;1.55;;;;;;;46.98;12.91;99407.06;5090089;28;42932;-82
2022/07/19 09:05:07;;;;;;;1.67;1.50;;;;;;;46.56;13.00;99406.47;5091790;28;43209;-82
2022/07/19 09:07:36;;;;;;;3.47;1.35;;;;;;;46.29;13.08;99404.63;5089756;28;41004;-80
2022/07/19 09:10:17;;;;;;;2.05;1.75;;;;;;;45.95;13.58;99395.91;5124737;27;41687;-80
2022/07/19 09:13:02;;;;;;;2.05;1.55;;;;;;;45.07;14.23;99390.44;5089512;28;41529;-81
2022/07/19 09:15:46;;;;;;;1.85;1.75;;;;;;;44.21;14.69;99383.56;5088676;28;43012;-83
2022/07/19 09:18:18;;;;;;;1.88;1.77;;;;;;;43.75;14.66;99390.97;5091182;28;39969;-79
2022/07/19 09:20:48;;;;;;;2.25;1.92;;;;;;;43.42;14.89;99381.59;5089718;28;41798;-80
2022/07/19 09:23:17;;;;;;;2.03;1.92;;;;;;;42.93;15.32;99377.13;5091570;28;42727;-79
2022/07/19 09:25:48;;;;;;;3.72;1.80;;;;;;;42.78;15.47;99372.53;5089798;28;41520;-82
2022/07/19 09:28:18;;;;;;;1.98;1.85;;;;;;;43.04;15.44;99364.72;5089049;28;39988;-79
2022/07/19 09:30:47;;;;;;;1.70;1.60;;;;;;;43.02;15.74;99361.44;5090920;28;41640;-78
2022/07/19 09:33:16;;;;;;;2.05;1.85;;;;;;;42.72;15.60;99362.56;5073253;28;43433;-79
2022/07/19 09:35:45;;;;;;;3.13;2.20;;;;;;;42.59;15.22;99366.88;5090774;28;43194;-79
2022/07/19 09:38:20;;;;;;;2.30;2.10;;;;;;;42.40;15.75;99362.34;5090256;28;41037;-80
2022/07/19 09:40:49;;;;;;;1.90;1.75;;;;;;;42.40;15.21;99353.97;5089425;28;44167;-81
2022/07/19 09:43:19;;;;;;;2.70;2.00;;;;;;;42.53;15.09;99359.69;5090085;28;42674;-81
2022/07/19 09:45:47;;;;;;;2.53;2.30;;;;;;;42.34;15.43;99366.22;5090730;28;42179;-80
2022/07/19 09:48:16;;;;;;;1.98;1.88;;;;;;;42.43;14.98;99370.06;5090627;28;39856;-83
2022/07/19 09:50:47;;;;;;;1.58;1.48;;;;;;;42.92;14.84;99367.09;5089565;28;40637;-79
2022/07/19 09:53:16;;;;;;;2.03;1.75;;;;;;;43.57;14.69;99359.94;5073407;28;41113;-80
2022/07/19 09:55:46;;;;;;;1.75;1.65;;;;;;;44.20;14.50;99365.16;5089441;28;42307;-82
2022/07/19 09:58:16;;;;;;;2.03;1.92;;;;;;;44.79;13.49;99358.00;5090154;28;39266;-80
2022/07/19 10:00:45;;;;;;;2.58;1.83;;;;;;;45.31;13.47;99378.25;5091573;28;41007;-83
2022/07/19 10:03:15;;;;;;;1.98;1.88;;;;;;;45.67;12.93;99367.97;5093531;28;41971;-79
2022/07/19 10:05:43;;;;;;;2.17;1.92;;;;;;;45.47;13.19;99354.41;5076477;28;41135;-88
2022/07/19 10:08:12;;;;;;;2.08;1.90;;;;;;;44.46;13.38;99322.84;5077531;28;40295;-86
2022/07/19 10:10:39;;;;;;;1.52;1.42;;;;;;;43.94;14.03;99349.91;5076988;28;40973;-86
2022/07/19 10:13:09;;;;;;;1.90;1.80;;;;;;;43.25;14.25;99326.34;5093995;28;43005;-84
2022/07/19 10:15:43;;;;;;;1.80;1.70;;;;;;;43.05;14.38;99357.19;5076631;28;41854;-85
2022/07/19 10:18:14;;;;;;;2.05;1.95;;;;;;;42.91;14.67;99355.13;5076224;28;38880;-76
2022/07/19 10:20:46;;;;;;;2.28;2.08;;;;;;;43.20;14.77;99341.16;5090632;28;41738;-74
2022/07/19 10:23:14;;;;;;;2.00;1.90;;;;;;;44.06;14.26;99353.09;5092797;28;43125;-74
2022/07/19 10:25:44;;;;;;;1.73;1.63;;;;;;;45.19;13.50;99362.00;5091921;28;41081;-74
2022/07/19 10:28:38;;;;;;;1.80;1.70;;;;;;;46.14;12.63;99346.13;5093238;28;40900;-76
2022/07/19 10:31:25;;;;;;;1.65;1.55;;;;;;;46.32;12.79;99347.97;5087448;28;41966;-79
2022/07/19 10:34:00;;;;;;;1.83;1.73;;;;;;;46.23;13.07;99344.25;5109932;28;42774;-75
2022/07/19 10:36:51;;;;;;;2.22;2.03;;;;;;;45.91;12.98;99336.91;5092463;28;41048;-81
2022/07/19 10:39:29;;;;;;;1.80;1.70;;;;;;;45.72;12.66;99331.47;5071469;28;38901;-80
2022/07/19 10:42:18;;;;;;;2.00;1.90;;;;;;;46.36;12.54;99331.34;5092088;28;41905;-84
2022/07/19 10:45:26;;;;;;;1.75;1.65;;;;;;;46.56;11.83;99336.41;5091304;28;42490;-78
2022/07/19 10:48:10;;;;;;;2.85;1.60;;;;;;;46.28;12.48;99330.13;5076109;28;42428;-78
2022/07/19 10:50:50;;;;;;;1.48;1.38;;;;;;;45.90;12.47;99317.63;5089571;28;40842;-84
2022/07/19 10:54:12;;;;;;;1.90;1.80;;;;;;;45.22;13.49;99307.41;5089294;28;42842;-78
2022/07/19 10:56:42;;;;;;;1.92;1.83;;;;;;;44.83;13.02;99316.28;5060573;28;42180;-81
2022/07/19 10:59:11;;;;;;;4.18;1.77;;;;;;;44.54;13.14;99308.16;5092760;28;42434;-77
2022/07/19 11:01:54;;;;;;;1.77;1.65;;;;;;;44.49;13.40;99306.31;5075027;28;39544;-77
2022/07/19 11:04:29;;;;;;;2.13;1.67;;;;;;;44.46;13.51;99300.50;5092446;28;41921;-82
2022/07/19 11:07:12;;;;;;;2.38;1.65;;;;;;;44.60;13.06;99301.34;5071649;28;42411;-80
2022/07/19 11:09:44;;;;;;;1.60;1.50;;;;;;;44.72;12.70;99307.25;5072497;28;41985;-82
2022/07/19 11:12:24;;;;;;;2.10;1.80;;;;;;;44.83;13.02;99294.75;5087112;28;40315;-79
2022/07/19 11:14:52;;;;;;;1.65;1.55;;;;;;;44.72;12.80;99290.47;5093910;28;42212;-86
2022/07/19 11:17:20;;;;;;;2.13;1.83;;;;;;;44.45;13.47;99284.88;5074539;28;41746;-82
2022/07/19 11:20:07;;;;;;;1.95;1.77;;;;;;;44.24;12.86;99285.22;5109518;28;41156;-84
2022/07/19 11:22:37;;;;;;;1.70;1.60;;;;;;;43.95;13.18;99273.41;5108688;28;40070;-80
2022/07/19 11:25:06;;;;;;;1.83;1.67;;;;;;;43.75;13.35;99273.75;5127197;27;42666;-82
2022/07/19 11:27:34;;;;;;;1.75;1.50;;;;;;;43.65;13.44;99269.97;5093218;28;43889;-82
2022/07/19 11:30:05;;;;;;;2.08;1.88;;;;;;;43.25;13.14;99229.56;5109903;28;42235;-88
2022/07/19 11:32:34;;;;;;;1.30;1.27;;;;;;;43.38;13.43;99261.44;5091482;28;40990;-86
2022/07/19 11:35:07;;;;;;;4.25;1.73;;;;;;;43.41;13.28;99258.03;5092227;28;42096;-83
2022/07/19 11:37:38;;;;;;;2.35;2.10;;;;;;;43.47;12.88;99273.56;5091079;28;42847;-80
2022/07/19 11:40:08;;;;;;;2.22;1.80;;;;;;;43.75;13.36;99259.81;5123578;27;42172;-80
2022/07/19 11:42:37;;;;;;;2.83;1.38;;;;;;;44.22;12.92;99262.34;5091352;28;40856;-78
2022/07/19 11:45:10;;;;;;;1.90;1.80;;;;;;;44.60;12.61;99265.00;5092225;28;42181;-82
2022/07/19 11:47:41;;;;;;;1.63;1.52;;;;;;;44.78;12.54;99258.50;5091210;28;42428;-81